Time;durP1;ratioP1;P1;durP2;ratioP2;P2;SDS_P1;SDS_P2;PMS_P1;PMS_P2;Temp;Humidity;BMP_temperature;BMP_pressure;BME280_temperature;BME280_humidity;BME280_pressure;Samples;Min_cycle;Max_cycle;Signal;HPM_P1;HPM_P2
2022/12/09 00:01:05;;;;;;;10.48;9.98;;;2.90;94.20;;;;;;5055703;28;20037;-78
2022/12/09 00:03:31;;;;;;;9.07;8.68;;;3.00;94.00;;;;;;5051070;28;20036;-76
2022/12/09 00:05:57;;;;;;;10.15;9.65;;;2.90;94.00;;;;;;5033054;28;20389;-76
2022/12/09 00:08:23;;;;;;;9.02;8.63;;;2.90;94.00;;;;;;5050066;28;20033;-74
2022/12/09 00:10:48;;;;;;;11.43;10.93;;;2.90;94.00;;;;;;5033015;28;20477;-74
2022/12/09 00:13:14;;;;;;;10.73;10.23;;;2.80;94.00;;;;;;5049721;28;20044;-75
2022/12/09 00:15:41;;;;;;;11.45;10.95;;;2.80;94.00;;;;;;5049337;28;20074;-75
2022/12/09 00:18:07;;;;;;;9.90;9.40;;;2.70;93.90;;;;;;5032960;28;20060;-75
2022/12/09 00:20:33;;;;;;;11.55;11.05;;;2.60;93.90;;;;;;5049330;28;20426;-74
2022/12/09 00:22:59;;;;;;;12.18;11.68;;;2.40;93.90;;;;;;5049190;28;20033;-75
2022/12/09 00:25:24;;;;;;;11.90;11.40;;;2.40;93.90;;;;;;5032437;28;20056;-74
2022/12/09 00:27:50;;;;;;;10.52;10.02;;;2.30;93.90;;;;;;5032505;28;20029;-78
2022/12/09 00:30:16;;;;;;;9.43;8.95;;;2.20;93.90;;;;;;5049318;28;20037;-74
2022/12/09 00:32:42;;;;;;;10.23;9.73;;;2.20;94.00;;;;;;5041507;28;20012;-82
2022/12/09 00:35:07;;;;;;;10.13;9.63;;;2.30;94.10;;;;;;5055539;28;20032;-83
2022/12/09 00:37:33;;;;;;;9.70;9.20;;;2.30;94.00;;;;;;5071803;28;20025;-82
2022/12/09 00:39:59;;;;;;;9.85;9.35;;;2.20;93.90;;;;;;5055457;28;20037;-76
2022/12/09 00:42:25;;;;;;;9.77;9.27;;;2.10;93.90;;;;;;5048606;28;20615;-76
2022/12/09 00:44:51;;;;;;;8.73;8.32;;;2.10;94.00;;;;;;5048508;28;20055;-76
2022/12/09 00:47:16;;;;;;;8.63;8.23;;;2.10;94.10;;;;;;5048570;28;20089;-76
2022/12/09 00:49:42;;;;;;;8.55;8.15;;;2.20;94.10;;;;;;5048415;28;20444;-76
2022/12/09 00:52:08;;;;;;;8.13;7.72;;;2.20;94.10;;;;;;5048499;28;20032;-76
2022/12/09 00:54:33;;;;;;;7.55;7.15;;;2.20;94.10;;;;;;5015672;28;20045;-78
2022/12/09 00:56:59;;;;;;;6.10;5.80;;;2.20;94.10;;;;;;5048733;28;20393;-79
2022/12/09 00:59:25;;;;;;;8.35;7.95;;;2.30;94.10;;;;;;5031772;28;20048;-79
2022/12/09 01:01:51;;;;;;;7.40;7.00;;;2.30;94.00;;;;;;5049909;28;20052;-80
2022/12/09 01:04:16;;;;;;;7.68;7.28;;;2.30;94.00;;;;;;5048455;28;20048;-79
2022/12/09 01:06:42;;;;;;;7.55;7.15;;;2.30;93.90;;;;;;5048538;28;20385;-80
2022/12/09 01:09:08;;;;;;;7.50;7.10;;;2.20;93.90;;;;;;5049750;28;20026;-80
2022/12/09 01:11:34;;;;;;;6.97;6.57;;;2.20;93.90;;;;;;5061844;28;20059;-79
2022/12/09 01:14:01;;;;;;;7.95;7.55;;;2.10;93.90;;;;;;5048807;28;20064;-79
2022/12/09 01:16:30;;;;;;;8.18;7.78;;;2.00;94.00;;;;;;5048315;28;20028;-80
2022/12/09 01:18:58;;;;;;;8.07;7.68;;;1.90;94.00;;;;;;5048174;28;20031;-80
2022/12/09 01:21:25;;;;;;;7.95;7.55;;;1.90;94.00;;;;;;5047970;28;20076;-80
2022/12/09 01:23:51;;;;;;;7.95;7.55;;;1.90;94.10;;;;;;5048024;28;20043;-80
2022/12/09 01:26:17;;;;;;;8.07;7.68;;;1.80;94.00;;;;;;5031412;28;20029;-80
2022/12/09 01:28:42;;;;;;;7.40;7.00;;;1.70;94.00;;;;;;5047821;28;20440;-80
2022/12/09 01:31:11;;;;;;;7.85;7.45;;;1.70;94.00;;;;;;5048108;28;20032;-80
2022/12/09 01:33:37;;;;;;;7.63;7.22;;;1.60;94.00;;;;;;5049129;28;20045;-80
2022/12/09 01:36:06;;;;;;;8.00;7.60;;;1.60;94.00;;;;;;5047934;28;20033;-80
2022/12/09 01:38:32;;;;;;;8.55;8.15;;;1.60;94.00;;;;;;5048462;28;20065;-80
2022/12/09 01:40:57;;;;;;;8.07;7.68;;;1.60;94.00;;;;;;5031207;28;20060;-80
2022/12/09 01:43:23;;;;;;;7.95;7.55;;;1.60;94.00;;;;;;5031102;28;20082;-80
2022/12/09 01:45:49;;;;;;;8.00;7.60;;;1.50;93.90;;;;;;5048978;28;20087;-80
2022/12/09 01:48:19;;;;;;;7.88;7.47;;;1.50;93.90;;;;;;5031040;28;20079;-80
2022/12/09 01:50:55;;;;;;;7.82;7.43;;;1.40;93.90;;;;;;5047468;28;20076;-80
2022/12/09 01:53:24;;;;;;;8.25;7.85;;;1.40;93.90;;;;;;5047533;28;20024;-80
2022/12/09 01:55:52;;;;;;;9.10;8.70;;;1.30;93.80;;;;;;5047438;28;20025;-79
2022/12/09 01:58:18;;;;;;;8.73;8.32;;;1.30;93.90;;;;;;5031070;28;20029;-79
2022/12/09 02:00:45;;;;;;;8.70;8.30;;;1.20;93.80;;;;;;5030884;28;20035;-80
2022/12/09 02:03:11;;;;;;;11.05;10.55;;;1.20;93.80;;;;;;5048423;28;20113;-80
2022/12/09 02:05:37;;;;;;;;;;;1.10;93.90;;;;;;5049127;28;20033;-76
2022/12/09 02:08:06;;;;;;;11.02;10.52;;;1.10;93.90;;;;;;5030688;28;19909;-75
2022/12/09 02:10:34;;;;;;;12.65;12.05;;;1.10;93.80;;;;;;5047422;28;20374;-76
2022/12/09 02:13:02;;;;;;;13.07;12.48;;;1.00;93.80;;;;;;5047189;28;20097;-75
2022/12/09 02:15:48;;;;;;;13.35;12.75;;;1.00;93.90;;;;;;5047308;28;20488;-75
2022/12/09 02:18:23;;;;;;;12.70;12.10;;;0.90;93.90;;;;;;5047324;28;20041;-76
2022/12/09 02:20:55;;;;;;;11.65;11.15;;;0.90;93.90;;;;;;5047169;28;20045;-76
2022/12/09 02:23:30;;;;;;;11.95;11.45;;;0.90;93.90;;;;;;5047161;28;20036;-76
2022/12/09 02:26:13;;;;;;;12.02;11.52;;;0.90;93.90;;;;;;5047274;28;20029;-76
2022/12/09 02:28:45;;;;;;;12.07;11.57;;;0.90;93.90;;;;;;5048364;28;20520;-75
2022/12/09 02:31:28;;;;;;;10.80;10.30;;;0.90;93.90;;;;;;5046859;28;20056;-76
2022/12/09 02:34:17;;;;;;;10.48;9.98;;;0.90;93.90;;;;;;5048517;28;20036;-75
2022/12/09 02:36:56;;;;;;;9.77;9.27;;;0.80;93.90;;;;;;5046833;28;20067;-76
2022/12/09 02:39:29;;;;;;;10.52;10.02;;;0.90;93.90;;;;;;5046911;28;20400;-75
2022/12/09 02:41:57;;;;;;;11.48;10.98;;;0.90;93.90;;;;;;5047051;28;20029;-76
2022/12/09 02:44:24;;;;;;;9.55;9.05;;;0.90;93.90;;;;;;5046523;28;20551;-75
2022/12/09 02:46:51;;;;;;;9.38;8.90;;;0.90;93.90;;;;;;5048197;28;20099;-76
2022/12/09 02:49:19;;;;;;;10.10;9.60;;;0.90;93.90;;;;;;5046473;28;20033;-76
2022/12/09 02:51:47;;;;;;;10.43;9.93;;;0.80;93.80;;;;;;5030224;28;20039;-76
2022/12/09 02:54:16;;;;;;;10.55;10.05;;;0.80;93.80;;;;;;5047214;28;20564;-79
2022/12/09 02:57:00;;;;;;;10.45;9.95;;;0.80;93.80;;;;;;5047554;28;20046;-79
2022/12/09 02:59:26;;;;;;;10.55;10.05;;;0.80;93.80;;;;;;5046522;28;20025;-79
2022/12/09 03:02:13;;;;;;;9.30;8.90;;;0.80;93.80;;;;;;5046451;28;20033;-79
2022/12/09 03:04:41;;;;;;;10.45;9.95;;;0.70;93.70;;;;;;5046176;28;20485;-80
2022/12/09 03:07:33;;;;;;;11.18;10.68;;;0.70;93.70;;;;;;5047748;28;20024;-79
2022/12/09 03:10:07;;;;;;;11.10;10.60;;;0.70;93.70;;;;;;5047595;28;20036;-80
2022/12/09 03:12:36;;;;;;;10.57;10.07;;;0.60;93.70;;;;;;5046144;28;20028;-80
2022/12/09 03:15:04;;;;;;;10.60;10.10;;;0.60;93.70;;;;;;5047490;28;20171;-80
2022/12/09 03:17:34;;;;;;;12.20;11.68;;;0.60;93.70;;;;;;5029563;28;20037;-79
2022/12/09 03:20:15;;;;;;;11.30;10.80;;;0.60;93.70;;;;;;5047460;28;20055;-79
2022/12/09 03:22:44;;;;;;;12.88;12.27;;;0.60;93.70;;;;;;5047559;28;20041;-80
2022/12/09 03:25:16;;;;;;;13.35;12.75;;;0.50;93.70;;;;;;5046022;28;20033;-79
2022/12/09 03:27:49;;;;;;;13.50;12.90;;;0.50;93.70;;;;;;5046086;28;20032;-80
2022/12/09 03:30:16;;;;;;;14.20;13.60;;;0.50;93.70;;;;;;5046101;28;20032;-79
2022/12/09 03:32:43;;;;;;;14.32;13.73;;;0.50;93.60;;;;;;5046050;28;20026;-79
2022/12/09 03:35:17;;;;;;;15.00;14.40;;;0.50;93.60;;;;;;5047426;28;20421;-79
2022/12/09 03:37:45;;;;;;;13.73;13.13;;;0.50;93.60;;;;;;5045828;28;20029;-79
2022/12/09 03:40:14;;;;;;;14.13;13.52;;;0.40;93.60;;;;;;5045546;28;20048;-84
2022/12/09 03:43:17;;;;;;;14.35;13.75;;;0.40;93.60;;;;;;5060123;28;20040;-85
2022/12/09 03:45:43;;;;;;;14.23;13.63;;;0.40;93.60;;;;;;5061836;28;20041;-84
2022/12/09 03:48:10;;;;;;;14.90;14.30;;;0.30;93.60;;;;;;5064425;28;20032;-84
2022/12/09 03:50:54;;;;;;;14.00;13.40;;;0.30;93.60;;;;;;5067246;28;20053;-84
2022/12/09 03:53:27;;;;;;;13.88;13.27;;;0.30;93.60;;;;;;5067534;28;20097;-84
2022/12/09 03:56:13;;;;;;;14.07;13.48;;;0.30;93.60;;;;;;5068254;28;20017;-84
2022/12/09 03:58:41;;;;;;;13.75;13.15;;;0.20;93.60;;;;;;5067151;28;20043;-84
2022/12/09 04:01:08;;;;;;;14.73;14.13;;;0.20;93.60;;;;;;5069122;28;20029;-83
2022/12/09 04:03:33;;;;;;;14.68;14.07;;;0.20;93.60;;;;;;5071449;28;20389;-84
2022/12/09 04:05:59;;;;;;;15.13;14.52;;;0.20;93.60;;;;;;5070413;28;20029;-84
2022/12/09 04:08:25;;;;;;;14.63;14.02;;;0.20;93.60;;;;;;5057344;28;20041;-84
2022/12/09 04:10:51;;;;;;;14.85;14.25;;;0.10;93.60;;;;;;5057846;28;20056;-84
2022/12/09 04:13:16;;;;;;;14.48;13.88;;;0.10;93.60;;;;;;5065441;28;20052;-84
2022/12/09 04:15:42;;;;;;;15.77;15.07;;;0.20;93.70;;;;;;5067923;28;20021;-83
2022/12/09 04:18:08;;;;;;;14.50;13.90;;;0.10;93.60;;;;;;5030629;28;20069;-85
2022/12/09 04:20:33;;;;;;;14.05;13.45;;;0.10;93.60;;;;;;5043057;28;20057;-85
2022/12/09 04:22:59;;;;;;;14.50;13.90;;;0.10;93.60;;;;;;5043376;28;20041;-84
2022/12/09 04:25:25;;;;;;;15.50;14.80;;;0.10;93.60;;;;;;5058392;28;20025;-84
2022/12/09 04:27:50;;;;;;;15.13;14.52;;;0.00;93.60;;;;;;5058081;28;20056;-84
2022/12/09 04:30:16;;;;;;;14.93;14.32;;;0.00;93.60;;;;;;5024665;28;20021;-85
2022/12/09 04:32:42;;;;;;;14.90;14.30;;;0.00;93.60;;;;;;5059235;28;20033;-85
2022/12/09 04:35:08;;;;;;;14.95;14.35;;;0.00;93.60;;;;;;5058105;28;20128;-85
2022/12/09 04:37:36;;;;;;;14.60;14.00;;;0.00;93.60;;;;;;5043043;28;20068;-85
2022/12/09 04:40:04;;;;;;;14.90;14.30;;;0.00;93.50;;;;;;5060533;28;20036;-85
2022/12/09 04:42:29;;;;;;;15.13;14.52;;;-0.10;93.50;;;;;;5060207;28;20037;-85
2022/12/09 04:44:55;;;;;;;15.63;14.93;;;-0.10;93.50;;;;;;5059075;28;20070;-85
2022/12/09 04:47:21;;;;;;;15.43;14.73;;;-0.10;93.50;;;;;;5059628;28;20035;-85
2022/12/09 04:49:46;;;;;;;14.80;14.20;;;-0.10;93.50;;;;;;5061277;28;20053;-85
2022/12/09 04:52:12;;;;;;;15.18;14.57;;;-0.20;93.50;;;;;;5043385;28;20033;-85
2022/12/09 04:54:38;;;;;;;16.85;16.15;;;-0.20;93.50;;;;;;5045135;28;20116;-85
2022/12/09 04:57:03;;;;;;;16.35;15.65;;;-0.20;93.50;;;;;;5068237;28;20025;-84
2022/12/09 04:59:30;;;;;;;15.70;15.00;;;-0.20;93.50;;;;;;5070774;28;20049;-84
2022/12/09 05:01:56;;;;;;;15.05;14.45;;;-0.20;93.50;;;;;;5072130;28;20477;-84
2022/12/09 05:04:21;;;;;;;14.95;14.35;;;-0.30;93.50;;;;;;5073459;28;20021;-84
2022/12/09 05:06:47;;;;;;;14.15;13.55;;;-0.30;93.50;;;;;;5052319;28;20100;-84
2022/12/09 05:09:13;;;;;;;14.27;13.68;;;-0.30;93.50;;;;;;5048686;28;20152;-84
2022/12/09 05:11:39;;;;;;;14.77;14.18;;;-0.40;93.50;;;;;;5066988;28;20029;-84
2022/12/09 05:14:05;;;;;;;15.55;14.85;;;-0.30;93.50;;;;;;5072200;28;20013;-85
2022/12/09 05:16:30;;;;;;;14.25;13.65;;;-0.30;93.50;;;;;;5068686;28;20044;-85
2022/12/09 05:18:58;;;;;;;14.43;13.82;;;-0.40;93.50;;;;;;5070632;28;20057;-85
2022/12/09 05:21:24;;;;;;;15.50;14.82;;;-0.40;93.50;;;;;;5067460;28;20048;-85
2022/12/09 05:23:49;;;;;;;15.90;15.20;;;-0.40;93.50;;;;;;5070129;28;20033;-84
2022/12/09 05:26:18;;;;;;;14.65;14.05;;;-0.40;93.50;;;;;;5052715;28;20481;-84
2022/12/09 05:28:44;;;;;;;15.68;14.98;;;-0.40;93.50;;;;;;5070311;28;20021;-84
2022/12/09 05:31:15;;;;;;;15.65;14.95;;;-0.40;93.50;;;;;;5055268;28;20081;-84
2022/12/09 05:33:41;;;;;;;14.57;13.98;;;-0.40;93.50;;;;;;5072056;28;20033;-84
2022/12/09 05:36:09;;;;;;;14.77;14.18;;;-0.50;93.50;;;;;;5072723;28;20009;-83
2022/12/09 05:38:35;;;;;;;15.48;14.77;;;-0.50;93.50;;;;;;5074531;28;20028;-84
2022/12/09 05:41:00;;;;;;;14.73;14.13;;;-0.50;93.50;;;;;;5065206;28;20033;-84
2022/12/09 05:43:26;;;;;;;14.85;14.25;;;-0.50;93.50;;;;;;5046576;28;20041;-85
2022/12/09 05:45:52;;;;;;;14.05;13.45;;;-0.60;93.50;;;;;;5065559;28;20331;-84
2022/12/09 05:48:18;;;;;;;14.65;14.05;;;-0.60;93.50;;;;;;5063464;28;20025;-84
2022/12/09 05:50:43;;;;;;;13.35;12.75;;;-0.60;93.50;;;;;;5068555;28;20064;-84
2022/12/09 05:53:09;;;;;;;13.18;12.57;;;-0.70;93.50;;;;;;5031639;28;20100;-84
2022/12/09 05:55:40;;;;;;;14.80;14.20;;;-0.70;93.50;;;;;;5069198;28;20033;-84
2022/12/09 05:58:05;;;;;;;14.85;14.25;;;-0.70;93.50;;;;;;5070451;28;20025;-83
2022/12/09 06:00:31;;;;;;;14.57;13.98;;;-0.70;93.60;;;;;;5069347;28;20048;-83
2022/12/09 06:02:56;;;;;;;16.75;16.05;;;-0.70;93.50;;;;;;5057291;28;20033;-82
2022/12/09 06:05:22;;;;;;;13.35;12.75;;;-0.70;93.50;;;;;;5038139;28;20101;-84
2022/12/09 06:07:48;;;;;;;14.10;13.50;;;-0.70;93.50;;;;;;5064704;28;20044;-84
2022/12/09 06:10:13;;;;;;;16.40;15.70;;;-0.70;93.50;;;;;;5063618;28;20033;-84
2022/12/09 06:12:39;;;;;;;15.10;14.50;;;-0.70;93.50;;;;;;5062719;28;20044;-84
2022/12/09 06:15:06;;;;;;;14.35;13.75;;;-0.70;93.50;;;;;;5061993;28;20036;-84
2022/12/09 06:17:31;;;;;;;15.45;14.77;;;-0.70;93.50;;;;;;5042811;28;20100;-84
2022/12/09 06:19:57;;;;;;;13.98;13.38;;;-0.70;93.50;;;;;;5046668;28;20045;-84
2022/12/09 06:22:23;;;;;;;15.93;15.23;;;-0.70;93.50;;;;;;5028808;28;20033;-84
2022/12/09 06:24:48;;;;;;;13.80;13.20;;;-0.70;93.50;;;;;;5044824;28;20029;-84
2022/12/09 06:27:14;;;;;;;14.48;13.88;;;-0.70;93.50;;;;;;5043933;28;20040;-85
2022/12/09 06:29:40;;;;;;;16.23;15.52;;;-0.80;93.50;;;;;;5042135;28;20044;-84
2022/12/09 06:32:06;;;;;;;15.55;14.85;;;-0.80;93.50;;;;;;5050045;28;20033;-84
2022/12/09 06:34:32;;;;;;;14.80;14.20;;;-0.80;93.50;;;;;;5064698;28;20029;-84
2022/12/09 06:36:57;;;;;;;16.95;16.25;;;-0.80;93.50;;;;;;5035567;28;20060;-84
2022/12/09 06:39:23;;;;;;;15.52;14.82;;;-0.90;93.50;;;;;;5031922;28;20086;-79
2022/12/09 06:41:49;;;;;;;13.35;12.75;;;-0.90;93.50;;;;;;5046617;28;20037;-79
2022/12/09 06:44:14;;;;;;;15.98;15.27;;;-0.90;93.50;;;;;;5047601;28;20025;-79
2022/12/09 06:46:40;;;;;;;15.82;15.13;;;-0.90;93.50;;;;;;5029909;28;20512;-78
2022/12/09 06:49:06;;;;;;;15.85;15.15;;;-0.90;93.50;;;;;;5030022;28;20033;-79
2022/12/09 06:51:32;;;;;;;16.70;16.00;;;-0.90;93.50;;;;;;5046467;28;20112;-79
2022/12/09 06:53:57;;;;;;;17.52;16.83;;;-1.00;93.50;;;;;;5046687;28;20477;-79
2022/12/09 06:56:23;;;;;;;16.20;15.50;;;-1.00;93.50;;;;;;5046403;28;20485;-79
2022/12/09 06:58:49;;;;;;;16.08;15.38;;;-1.00;93.50;;;;;;5047196;28;20037;-79
2022/12/09 07:01:17;;;;;;;;;;;-1.00;93.50;;;;;;5046606;28;20663;-78
2022/12/09 07:03:45;;;;;;;14.02;13.43;;;-1.00;93.50;;;;;;5047700;28;19909;-78
2022/12/09 07:06:22;;;;;;;12.85;12.25;;;-1.10;93.40;;;;;;5049953;28;20486;-79
2022/12/09 07:08:48;;;;;;;13.68;13.07;;;-1.10;93.40;;;;;;5046757;28;20561;-79
2022/12/09 07:11:14;;;;;;;12.95;12.35;;;-1.10;93.40;;;;;;5046085;28;20104;-79
2022/12/09 07:13:39;;;;;;;14.93;14.32;;;-1.20;93.40;;;;;;5043422;28;20028;-85
2022/12/09 07:16:05;;;;;;;13.95;13.35;;;-1.20;93.40;;;;;;5063310;28;20032;-84
2022/12/09 07:18:31;;;;;;;14.15;13.55;;;-1.20;93.40;;;;;;5033330;28;20059;-85
2022/12/09 07:20:56;;;;;;;13.00;12.40;;;-1.20;93.40;;;;;;5048166;28;20064;-85
2022/12/09 07:23:22;;;;;;;13.23;12.63;;;-1.30;93.40;;;;;;5060099;28;20140;-84
2022/12/09 07:25:56;;;;;;;12.88;12.27;;;-1.30;93.50;;;;;;5063148;28;20473;-85
2022/12/09 07:28:21;;;;;;;12.68;12.07;;;-1.40;93.40;;;;;;5062047;28;20100;-84
2022/12/09 07:30:47;;;;;;;12.45;11.90;;;-1.30;93.40;;;;;;5059490;28;20029;-84
2022/12/09 07:33:13;;;;;;;12.13;11.63;;;-1.30;93.50;;;;;;5061313;28;20043;-84
2022/12/09 07:35:38;;;;;;;10.40;9.90;;;-1.40;93.50;;;;;;5064762;28;20085;-84
2022/12/09 07:38:04;;;;;;;10.35;9.85;;;-1.40;93.50;;;;;;5070710;28;20033;-85
2022/12/09 07:40:30;;;;;;;11.35;10.85;;;-1.40;93.50;;;;;;5066883;28;20021;-84
2022/12/09 07:42:55;;;;;;;11.32;10.82;;;-1.40;93.50;;;;;;5049770;28;20052;-85
2022/12/09 07:45:21;;;;;;;10.68;10.18;;;-1.40;93.70;;;;;;5035788;28;20509;-84
2022/12/09 07:47:47;;;;;;;11.65;11.15;;;-1.30;93.50;;;;;;5065464;28;20029;-84
2022/12/09 07:50:13;;;;;;;10.60;10.10;;;-1.40;93.50;;;;;;5050793;28;20029;-85
2022/12/09 07:52:38;;;;;;;11.15;10.65;;;-1.40;93.50;;;;;;5065648;28;20089;-85
2022/12/09 07:55:04;;;;;;;10.85;10.35;;;-1.30;93.50;;;;;;5068825;28;20039;-84
2022/12/09 07:57:30;;;;;;;;;;;-1.40;93.40;;;;;;5062268;28;20033;-85
2022/12/09 07:59:56;;;;;;;10.98;10.48;;;-1.40;93.40;;;;;;5060922;28;19967;-84
2022/12/09 08:02:22;;;;;;;11.70;11.20;;;-1.40;93.40;;;;;;5048804;28;20116;-85
2022/12/09 08:04:47;;;;;;;10.82;10.32;;;-1.40;93.40;;;;;;5069935;28;20499;-85
2022/12/09 08:07:13;;;;;;;10.98;10.48;;;-1.40;93.40;;;;;;5064782;28;20036;-84
2022/12/09 08:09:39;;;;;;;11.70;11.20;;;-1.40;93.40;;;;;;5066898;28;20393;-85
2022/12/09 08:12:05;;;;;;;10.80;10.30;;;-1.40;93.40;;;;;;5069867;28;20052;-84
2022/12/09 08:14:30;;;;;;;10.95;10.45;;;-1.40;93.40;;;;;;5052826;28;20040;-85
2022/12/09 08:16:56;;;;;;;11.77;11.27;;;-1.40;93.40;;;;;;5070009;28;20258;-85
2022/12/09 08:19:22;;;;;;;11.32;10.82;;;-1.40;93.40;;;;;;5051891;28;20033;-84
2022/12/09 08:21:47;;;;;;;11.07;10.57;;;-1.40;93.40;;;;;;5052348;28;20119;-85
2022/12/09 08:24:13;;;;;;;11.40;10.90;;;-1.40;93.40;;;;;;5066716;28;20067;-85
2022/12/09 08:26:39;;;;;;;10.85;10.35;;;-1.50;93.40;;;;;;5067500;28;20029;-85
2022/12/09 08:29:10;;;;;;;11.77;11.27;;;-1.50;93.40;;;;;;5066350;28;20025;-84
2022/12/09 08:31:36;;;;;;;11.38;10.88;;;-1.50;93.40;;;;;;5071654;28;20025;-85
2022/12/09 08:34:04;;;;;;;11.75;11.25;;;-1.50;93.40;;;;;;5056602;28;20091;-84
2022/12/09 08:36:29;;;;;;;10.55;10.05;;;-1.50;93.40;;;;;;5065264;28;20052;-85
2022/12/09 08:38:59;;;;;;;11.65;11.15;;;-1.50;93.40;;;;;;5068183;28;20028;-85
2022/12/09 08:41:36;;;;;;;10.85;10.35;;;-1.40;93.40;;;;;;5069714;28;20029;-85
2022/12/09 08:44:18;;;;;;;10.07;9.57;;;-1.50;93.40;;;;;;5068312;28;20037;-83
2022/12/09 08:46:48;;;;;;;11.40;10.90;;;-1.50;93.30;;;;;;5066550;28;20017;-84
2022/12/09 08:49:18;;;;;;;10.63;10.13;;;-1.50;93.40;;;;;;5066842;28;20025;-84
2022/12/09 08:51:45;;;;;;;10.38;9.88;;;-1.40;93.40;;;;;;5070748;28;20013;-85
2022/12/09 08:54:11;;;;;;;10.48;9.98;;;-1.50;93.40;;;;;;5068579;28;20098;-81
2022/12/09 08:56:36;;;;;;;10.52;10.02;;;-1.50;93.40;;;;;;5065889;28;20033;-84
2022/12/09 08:59:02;;;;;;;9.02;8.63;;;-1.50;93.40;;;;;;5067050;28;20041;-84
2022/12/09 09:01:36;;;;;;;9.30;8.85;;;-1.40;93.50;;;;;;5052254;28;20033;-85
2022/12/09 09:04:05;;;;;;;11.00;10.50;;;-1.40;93.50;;;;;;5069530;28;20029;-84
2022/12/09 09:06:31;;;;;;;11.05;10.55;;;-1.30;93.50;;;;;;5069705;28;20025;-84
2022/12/09 09:08:57;;;;;;;8.55;8.15;;;-1.20;93.60;;;;;;5062883;28;20128;-84
2022/12/09 09:11:24;;;;;;;9.75;9.25;;;-1.20;93.60;;;;;;5048490;28;20119;-78
2022/12/09 09:13:50;;;;;;;10.63;10.13;;;-1.10;93.60;;;;;;5048010;28;20131;-78
2022/12/09 09:16:22;;;;;;;9.85;9.35;;;-1.10;93.50;;;;;;5047821;28;20025;-79
2022/12/09 09:18:48;;;;;;;10.13;9.63;;;-1.00;93.60;;;;;;5048950;28;20033;-78
2022/12/09 09:21:16;;;;;;;9.95;9.45;;;-0.90;93.60;;;;;;5030666;28;20049;-79
2022/12/09 09:23:42;;;;;;;10.07;9.57;;;-0.80;93.80;;;;;;5048422;28;20036;-78
2022/12/09 09:26:13;;;;;;;10.70;10.20;;;-0.70;93.70;;;;;;5047142;28;20180;-78
2022/12/09 09:28:39;;;;;;;10.35;9.85;;;-0.60;93.60;;;;;;5047098;28;20037;-78
2022/12/09 09:31:07;;;;;;;10.52;10.02;;;-0.50;93.60;;;;;;5046660;28;20029;-78
2022/12/09 09:33:33;;;;;;;10.30;9.80;;;-0.40;93.70;;;;;;5048581;28;20032;-78
2022/12/09 09:36:01;;;;;;;10.32;9.82;;;-0.30;93.70;;;;;;5030475;28;20190;-77
2022/12/09 09:38:28;;;;;;;10.85;10.35;;;-0.20;93.70;;;;;;5046929;28;20485;-79
2022/12/09 09:40:54;;;;;;;;;;;-0.20;93.70;;;;;;5049278;28;20485;-78
2022/12/09 09:43:24;;;;;;;10.13;9.63;;;-0.10;93.80;;;;;;5049952;28;20026;-78
2022/12/09 09:45:52;;;;;;;10.80;10.30;;;0.00;93.80;;;;;;5049244;28;20029;-78
2022/12/09 09:48:29;;;;;;;10.02;9.52;;;0.10;93.70;;;;;;5050573;28;20096;-77
2022/12/09 09:51:15;;;;;;;10.20;9.70;;;0.20;93.70;;;;;;5046583;28;20021;-74
2022/12/09 09:53:41;;;;;;;10.43;9.93;;;0.20;93.60;;;;;;5046919;28;20119;-79
2022/12/09 09:56:30;;;;;;;9.77;9.27;;;0.30;93.70;;;;;;5047243;28;20108;-79
2022/12/09 09:59:05;;;;;;;10.63;10.13;;;0.40;93.70;;;;;;5046717;28;20033;-79
2022/12/09 10:01:34;;;;;;;10.65;10.15;;;0.50;93.70;;;;;;5053751;28;20052;-79
2022/12/09 10:04:05;;;;;;;10.80;10.30;;;0.50;93.70;;;;;;5051022;28;20036;-80
2022/12/09 10:06:54;;;;;;;10.05;9.55;;;0.60;93.70;;;;;;5050120;28;20024;-80
2022/12/09 10:09:38;;;;;;;10.00;9.50;;;0.70;93.80;;;;;;5048521;28;20159;-80
2022/12/09 10:12:17;;;;;;;9.88;9.38;;;0.70;93.80;;;;;;5048487;28;20090;-80
2022/12/09 10:15:12;;;;;;;11.35;10.85;;;0.80;93.70;;;;;;5049021;28;20098;-80
2022/12/09 10:17:48;;;;;;;11.43;10.93;;;0.80;93.70;;;;;;5045200;28;20124;-80
2022/12/09 10:20:20;;;;;;;10.88;10.38;;;0.80;93.80;;;;;;5050153;28;20095;-80
2022/12/09 10:22:49;;;;;;;10.00;9.50;;;0.90;93.80;;;;;;5049094;28;20036;-79
2022/12/09 10:25:27;;;;;;;10.15;9.65;;;0.90;94.00;;;;;;5050022;28;20044;-80
2022/12/09 10:28:00;;;;;;;11.23;10.73;;;1.00;93.80;;;;;;5042912;28;20406;-76
2022/12/09 10:30:26;;;;;;;13.30;12.70;;;1.10;93.80;;;;;;5029741;28;20047;-76
2022/12/09 10:32:53;;;;;;;11.68;11.18;;;1.10;93.80;;;;;;5028416;28;20532;-77
2022/12/09 10:35:22;;;;;;;11.88;11.38;;;1.10;93.80;;;;;;5048242;28;20040;-76
2022/12/09 10:37:51;;;;;;;10.85;10.35;;;1.20;93.90;;;;;;5048155;28;20116;-77
2022/12/09 10:40:19;;;;;;;10.05;9.55;;;1.20;93.90;;;;;;5048325;28;20120;-76
2022/12/09 10:45:33;;;;;;;11.27;10.77;;;1.30;94.00;;;;;;5029774;28;20083;-76
2022/12/09 10:47:59;;;;;;;;;;;1.40;94.00;;;;;;5049770;28;20106;-76
2022/12/09 10:50:30;;;;;;;11.45;10.95;;;1.50;93.90;;;;;;5031557;28;20337;-76
2022/12/09 10:53:02;;;;;;;10.40;9.90;;;1.50;93.90;;;;;;5049521;28;20055;-76
2022/12/09 10:55:41;;;;;;;11.95;11.45;;;1.60;93.90;;;;;;5036639;28;20021;-76
2022/12/09 10:58:20;;;;;;;11.23;10.73;;;1.60;93.90;;;;;;5029271;28;20029;-75
2022/12/09 11:01:11;;;;;;;11.25;10.75;;;1.50;93.80;;;;;;5030397;28;20025;-75
2022/12/09 11:03:47;;;;;;;11.95;11.45;;;1.40;93.70;;;;;;5028915;28;20025;-76
2022/12/09 11:06:31;;;;;;;11.10;10.60;;;1.40;93.80;;;;;;5031135;28;20041;-76
2022/12/09 11:08:59;;;;;;;11.25;10.75;;;1.40;93.90;;;;;;5030188;28;20483;-76
2022/12/09 11:11:46;;;;;;;11.55;11.05;;;1.40;94.00;;;;;;5029166;28;20018;-76
2022/12/09 11:14:30;;;;;;;12.02;11.52;;;1.50;94.00;;;;;;5029560;28;20120;-77
2022/12/09 11:17:14;;;;;;;9.40;8.90;;;1.60;94.00;;;;;;5029278;28;20765;-79
2022/12/09 11:19:41;;;;;;;11.43;10.93;;;1.60;94.00;;;;;;5029134;28;20458;-76
2022/12/09 11:22:34;;;;;;;11.00;10.50;;;1.70;94.00;;;;;;5028485;28;20041;-74
2022/12/09 11:25:28;;;;;;;11.93;11.43;;;1.70;94.00;;;;;;5033175;28;20040;-78
2022/12/09 11:27:56;;;;;;;11.38;10.88;;;1.70;94.00;;;;;;5034299;28;20033;-79
2022/12/09 11:30:25;;;;;;;11.95;11.45;;;1.80;94.00;;;;;;5029684;28;20036;-76
2022/12/09 11:32:55;;;;;;;11.88;11.38;;;1.70;93.80;;;;;;5032141;28;20029;-79
2022/12/09 11:35:44;;;;;;;11.48;10.98;;;1.70;93.80;;;;;;5030045;28;20029;-74
2022/12/09 11:38:28;;;;;;;11.15;10.65;;;1.70;93.90;;;;;;5023894;28;20374;-76
2022/12/09 11:40:57;;;;;;;11.48;10.98;;;1.70;93.90;;;;;;5027785;28;20033;-75
2022/12/09 11:43:35;;;;;;;9.57;9.07;;;1.70;93.90;;;;;;5027599;28;20034;-77
2022/12/09 11:46:12;;;;;;;9.73;9.23;;;1.70;94.10;;;;;;5028161;28;20041;-76
2022/12/09 11:48:41;;;;;;;9.48;9.00;;;1.90;94.20;;;;;;5029348;28;20033;-78
2022/12/09 11:51:37;;;;;;;10.02;9.52;;;2.00;94.10;;;;;;5028956;28;20171;-77
2022/12/09 11:54:16;;;;;;;8.57;8.18;;;2.00;94.10;;;;;;5027414;28;20030;-77
2022/12/09 11:56:43;;;;;;;7.68;7.28;;;2.00;94.00;;;;;;5028770;28;20112;-77
2022/12/09 11:59:13;;;;;;;8.07;7.68;;;2.10;94.20;;;;;;5027010;28;20040;-76
2022/12/09 12:01:51;;;;;;;8.02;7.63;;;2.20;94.20;;;;;;5031328;28;20029;-77
2022/12/09 12:04:46;;;;;;;7.13;6.72;;;2.20;94.20;;;;;;5028601;28;20033;-76
2022/12/09 12:07:31;;;;;;;7.03;6.63;;;2.30;94.20;;;;;;5027128;28;20080;-79
2022/12/09 12:09:58;;;;;;;7.53;7.13;;;2.30;94.00;;;;;;5027259;28;20029;-79
2022/12/09 12:12:59;;;;;;;6.88;6.47;;;2.30;93.90;;;;;;5027051;28;20060;-80
2022/12/09 12:15:43;;;;;;;7.22;6.82;;;2.30;93.90;;;;;;5034834;28;20109;-81
2022/12/09 12:18:17;;;;;;;7.35;6.95;;;2.30;94.00;;;;;;5028585;28;20018;-78
2022/12/09 12:21:07;;;;;;;6.50;6.10;;;2.30;93.90;;;;;;5029122;28;20049;-76
2022/12/09 12:23:50;;;;;;;6.90;6.50;;;2.30;94.00;;;;;;5032411;28;20033;-73
2022/12/09 12:26:23;;;;;;;6.80;6.40;;;2.30;94.00;;;;;;5049194;28;20046;-75
2022/12/09 12:29:07;;;;;;;7.78;7.38;;;2.30;93.90;;;;;;5042161;28;20025;-79
2022/12/09 12:31:55;;;;;;;7.18;6.78;;;2.30;93.90;;;;;;5043925;28;20243;-77
2022/12/09 12:34:39;;;;;;;8.00;7.60;;;2.20;93.80;;;;;;5030941;28;20025;-77
2022/12/09 12:37:10;;;;;;;7.60;7.20;;;2.10;93.80;;;;;;5036254;28;20025;-77
2022/12/09 12:39:44;;;;;;;7.40;7.00;;;2.10;93.90;;;;;;5052214;28;20025;-78
2022/12/09 12:48:48;;;;;;;6.68;6.28;;;2.20;94.00;;;;;;5032168;28;20479;-79
2022/12/09 12:51:36;;;;;;;7.10;6.70;;;2.20;94.00;;;;;;5032223;28;20117;-73
2022/12/09 12:54:02;;;;;;;8.95;8.55;;;2.20;93.90;;;;;;5049824;28;20025;-78
2022/12/09 12:56:51;;;;;;;8.05;7.65;;;2.30;94.00;;;;;;5051186;28;20021;-78
2022/12/09 12:59:38;;;;;;;7.85;7.45;;;2.30;93.90;;;;;;5052105;28;20028;-78
2022/12/09 13:02:22;;;;;;;8.20;7.80;;;2.20;93.90;;;;;;5038509;28;20080;-77
2022/12/09 13:04:55;;;;;;;8.80;8.40;;;2.20;93.90;;;;;;5046877;28;20112;-79